Time;durP1;ratioP1;P1;durP2;ratioP2;P2;SDS_P1;SDS_P2;PMS_P1;PMS_P2;Temp;Humidity;BMP_temperature;BMP_pressure;BME280_temperature;BME280_humidity;BME280_pressure;Samples;Min_cycle;Max_cycle;Signal;HPM_P1;HPM_P2
2022/11/14 00:00:45;;;;;;;9.80;6.15;;;;;;;9.33;54.82;101541.28;4995607;28;115008;-71
2022/11/14 00:03:30;;;;;;;8.40;6.03;;;;;;;9.30;54.87;101540.50;5003854;28;114894;-71
2022/11/14 00:06:16;;;;;;;8.00;5.68;;;;;;;9.26;55.14;101539.72;4999248;28;125066;-71
2022/11/14 00:09:01;;;;;;;7.88;5.68;;;;;;;9.25;54.81;101537.13;5004231;28;124581;-71
2022/11/14 00:11:47;;;;;;;8.85;5.95;;;;;;;9.21;54.79;101535.47;5000687;28;116175;-71
2022/11/14 00:14:32;;;;;;;9.48;6.25;;;;;;;9.18;55.13;101527.66;5005478;28;115989;-71
2022/11/14 00:17:18;;;;;;;9.88;5.95;;;;;;;9.15;54.79;101526.84;4996064;28;123961;-72
2022/11/14 00:20:05;;;;;;;;;;;;;;;9.12;55.07;101537.50;5006244;28;124881;-71
2022/11/14 00:22:50;;;;;;;10.13;5.88;;;;;;;9.12;55.02;101537.50;4998816;28;115363;-72
2022/11/14 00:25:36;;;;;;;;;;;;;;;9.09;54.82;101532.28;5006469;28;115131;-71
2022/11/14 00:28:21;;;;;;;7.88;5.50;;;;;;;9.08;54.97;101530.56;4991114;28;125334;-71
2022/11/14 00:31:09;;;;;;;8.68;5.97;;;;;;;9.06;54.99;101527.09;5007721;28;124444;-71
2022/11/14 00:33:54;;;;;;;8.98;6.30;;;;;;;9.04;55.33;101523.63;4998437;28;114892;-71
2022/11/14 00:36:40;;;;;;;8.57;6.25;;;;;;;9.03;54.84;101521.03;4999058;28;114995;-71
2022/11/14 00:39:25;;;;;;;8.07;5.80;;;;;;;9.00;54.95;101511.38;5001642;28;125103;-71
2022/11/14 00:42:11;;;;;;;8.75;6.15;;;;;;;8.99;55.11;101514.97;5001665;28;124377;-71
2022/11/14 00:44:57;;;;;;;8.98;6.20;;;;;;;8.96;55.27;101504.47;4996969;28;114768;-71
2022/11/14 00:47:42;;;;;;;8.50;5.93;;;;;;;8.94;55.09;101490.44;4988866;28;114305;-71
2022/11/14 00:50:28;;;;;;;10.02;6.43;;;;;;;8.92;55.08;101494.91;5006149;28;125566;-71
2022/11/14 00:53:13;;;;;;;;;;;;;;;8.88;55.11;101495.91;4991231;28;124642;-71
2022/11/14 00:55:59;;;;;;;9.13;6.03;;;;;;;8.85;54.84;101495.97;5004472;28;115574;-71
2022/11/14 00:58:44;;;;;;;12.43;6.38;;;;;;;8.81;55.20;101504.88;4990512;28;115223;-71
2022/11/14 01:01:29;;;;;;;11.02;6.95;;;;;;;8.79;55.26;101501.41;5004761;28;124952;-71
2022/11/14 01:04:15;;;;;;;8.45;6.10;;;;;;;8.75;55.18;101490.94;5000908;28;124432;-71
2022/11/14 01:07:00;;;;;;;11.30;6.57;;;;;;;8.73;55.07;101503.31;4991325;28;115190;-71
2022/11/14 01:09:46;;;;;;;;;;;;;;;8.69;55.21;101496.38;5009374;28;114892;-71
2022/11/14 01:12:33;;;;;;;11.18;7.10;;;;;;;8.68;55.39;101499.94;5005645;28;124101;-71
2022/11/14 01:15:18;;;;;;;11.48;7.18;;;;;;;8.65;55.50;101494.75;5005278;28;125055;-71
2022/11/14 01:18:04;;;;;;;11.68;7.30;;;;;;;8.60;55.62;101485.22;5012726;28;115821;-71
2022/11/14 01:20:49;;;;;;;10.50;7.03;;;;;;;8.55;55.51;101487.94;5004290;28;114104;-71
2022/11/14 01:23:35;;;;;;;12.70;7.53;;;;;;;8.53;55.52;101489.75;5002533;28;125151;-71
2022/11/14 01:26:21;;;;;;;11.32;7.38;;;;;;;8.51;56.05;101481.03;5005263;28;124854;-71
2022/11/14 01:29:06;;;;;;;12.80;7.70;;;;;;;8.49;55.61;101475.78;4994372;28;115086;-71
2022/11/14 01:31:52;;;;;;;9.43;7.05;;;;;;;8.49;56.08;101477.56;4995911;28;114638;-71
2022/11/14 01:34:37;;;;;;;15.93;8.23;;;;;;;8.47;56.01;101468.81;5007956;28;124391;-71
2022/11/14 01:37:22;;;;;;;12.55;7.90;;;;;;;8.44;55.88;101463.59;5008986;28;125080;-71
2022/11/14 01:40:08;;;;;;;15.70;8.80;;;;;;;8.39;55.98;101461.94;5005837;28;114829;-71
2022/11/14 01:43:09;;;;;;;13.60;8.40;;;;;;;8.35;55.90;101460.28;5008995;28;115019;-72
2022/11/14 01:46:01;;;;;;;12.27;8.35;;;;;;;8.33;56.12;101451.53;4987441;28;124686;-71
2022/11/14 01:48:55;;;;;;;13.85;8.23;;;;;;;8.31;56.32;101453.34;5005798;28;124794;-71
2022/11/14 01:51:49;;;;;;;14.95;8.88;;;;;;;8.29;56.31;101444.59;5012344;28;116542;-71
2022/11/14 01:54:37;;;;;;;13.48;8.73;;;;;;;8.28;56.24;101442.88;5005478;28;114493;-71
2022/11/14 01:57:32;;;;;;;15.13;8.88;;;;;;;8.26;55.98;101433.25;5004607;28;124955;-71
2022/11/14 02:00:18;;;;;;;14.52;8.65;;;;;;;8.23;55.78;101428.94;5001172;28;125538;-71
2022/11/14 02:03:03;;;;;;;13.55;9.00;;;;;;;8.21;56.38;101430.72;4997942;28;115961;-71
2022/11/14 02:05:51;;;;;;;15.82;9.25;;;;;;;8.18;56.17;101431.69;4995180;28;115471;-71
2022/11/14 02:08:37;;;;;;;15.27;9.00;;;;;;;8.17;55.97;101422.06;5005648;28;125386;-71
2022/11/14 02:11:23;;;;;;;16.00;9.07;;;;;;;8.14;56.26;101421.25;5013265;28;125415;-71
2022/11/14 02:14:09;;;;;;;;;;;;;;;8.10;55.99;101422.22;5007560;28;115016;-71
2022/11/14 02:16:55;;;;;;;15.02;9.27;;;;;;;8.07;56.17;101412.63;5005339;28;113965;-72
2022/11/14 02:20:10;;;;;;;16.02;9.45;;;;;;;8.03;56.09;101404.84;5009799;28;124956;-71
2022/11/14 02:22:55;;;;;;;14.85;8.77;;;;;;;7.98;56.03;101397.88;5011748;28;124988;-72
2022/11/14 02:25:41;;;;;;;16.63;10.13;;;;;;;7.95;56.29;101397.97;5004604;28;114047;-71
2022/11/14 02:28:27;;;;;;;17.77;9.85;;;;;;;7.92;56.32;101395.41;5010867;28;115044;-71
2022/11/14 02:31:14;;;;;;;17.50;9.90;;;;;;;7.90;56.28;101394.59;5006318;28;125161;-71
2022/11/14 02:34:00;;;;;;;15.52;10.18;;;;;;;7.85;56.39;101391.19;5003885;28;124405;-71
2022/11/14 02:36:46;;;;;;;16.13;9.20;;;;;;;7.84;56.44;101392.09;4989079;28;114712;-71
2022/11/14 02:39:31;;;;;;;15.82;9.60;;;;;;;7.84;56.26;101384.19;5009626;28;114465;-71
2022/11/14 02:42:16;;;;;;;16.38;10.10;;;;;;;7.81;56.22;101373.72;4990662;28;124781;-71
2022/11/14 02:45:02;;;;;;;16.52;9.93;;;;;;;7.80;56.39;101377.28;5005574;28;124547;-72
2022/11/14 02:47:48;;;;;;;17.23;9.73;;;;;;;7.79;56.72;101376.38;4997134;28;115464;-71
2022/11/14 02:50:34;;;;;;;20.30;10.50;;;;;;;7.76;56.40;101367.69;4985594;28;114568;-71
2022/11/14 02:53:19;;;;;;;16.02;9.55;;;;;;;7.74;56.61;101378.28;5012149;28;125285;-71
2022/11/14 02:56:05;;;;;;;;;;;;;;;7.72;56.35;101373.94;4992053;28;124897;-71
2022/11/14 02:58:51;;;;;;;16.40;9.82;;;;;;;7.69;56.23;101368.75;5005021;28;116799;-71
2022/11/14 03:01:36;;;;;;;19.27;10.55;;;;;;;7.65;56.51;101361.81;4991515;28;116103;-71
2022/11/14 03:04:22;;;;;;;16.08;9.30;;;;;;;7.59;56.58;101368.97;5008048;28;124677;-71
2022/11/14 03:07:07;;;;;;;17.38;10.38;;;;;;;7.57;56.53;101369.91;5000287;28;123685;-71
2022/11/14 03:09:52;;;;;;;16.95;10.38;;;;;;;7.55;56.91;101375.25;5004044;28;114737;-71
2022/11/14 03:12:38;;;;;;;19.65;10.48;;;;;;;7.56;56.81;101369.03;5002325;28;113652;-71
2022/11/14 03:15:24;;;;;;;;;;;;;;;7.56;56.79;101366.41;4999235;28;126862;-71
2022/11/14 03:18:09;;;;;;;19.17;10.48;;;;;;;7.57;56.75;101362.00;5007296;28;125063;-72
2022/11/14 03:20:55;;;;;;;;;;;;;;;7.57;56.68;101359.34;4988337;28;114862;-72
2022/11/14 03:23:40;;;;;;;17.02;9.82;;;;;;;7.56;56.45;101358.50;5001214;28;115360;-71
2022/11/14 03:26:26;;;;;;;19.38;11.32;;;;;;;7.53;56.39;101353.28;4986443;28;125001;-72
2022/11/14 03:29:12;;;;;;;16.75;10.65;;;;;;;7.51;56.63;101360.38;4993325;28;125162;-72
2022/11/14 03:31:57;;;;;;;17.42;10.32;;;;;;;7.47;56.47;101364.00;5002182;28;114998;-71
2022/11/14 03:34:42;;;;;;;18.75;11.07;;;;;;;7.44;56.45;101357.94;5003166;28;114777;-72
2022/11/14 03:37:28;;;;;;;20.73;11.50;;;;;;;7.40;56.69;101362.41;5002198;28;124869;-71
2022/11/14 03:40:13;;;;;;;18.60;11.20;;;;;;;7.39;56.60;101360.69;4998777;28;124712;-71
2022/11/14 03:42:58;;;;;;;19.42;11.43;;;;;;;7.38;56.74;101364.22;4986494;28;114661;-72
2022/11/14 03:45:45;;;;;;;21.70;11.52;;;;;;;7.36;56.92;101360.75;5007547;28;115193;-71
2022/11/14 03:48:30;;;;;;;20.63;11.80;;;;;;;7.33;56.83;101360.84;5009375;28;125282;-71
2022/11/14 03:51:17;;;;;;;20.05;11.40;;;;;;;7.32;57.07;101364.34;4998498;28;125745;-71
2022/11/14 03:54:02;;;;;;;25.50;11.48;;;;;;;7.29;56.90;101364.41;5001363;28;115601;-71
2022/11/14 03:56:48;;;;;;;;;;;;;;;7.26;56.63;101360.09;4989926;28;115671;-71
2022/11/14 03:59:34;;;;;;;19.80;11.57;;;;;;;7.23;56.36;101354.88;5003008;28;125157;-71
2022/11/14 04:02:19;;;;;;;19.40;10.98;;;;;;;7.21;56.69;101351.41;5001245;28;125148;-71
2022/11/14 04:05:05;;;;;;;21.02;11.95;;;;;;;7.17;56.93;101345.34;5001515;28;114739;-72
2022/11/14 04:07:50;;;;;;;;;;;;;;;7.14;56.88;101337.53;4996312;28;114718;-71
2022/11/14 04:10:36;;;;;;;22.63;11.73;;;;;;;7.13;57.24;101332.31;4996539;28;125235;-71
2022/11/14 04:13:21;;;;;;;21.42;11.65;;;;;;;7.09;57.16;101326.25;4991612;28;124720;-71
2022/11/14 04:16:07;;;;;;;22.10;11.52;;;;;;;7.08;56.82;101329.75;4999106;28;114687;-71
2022/11/14 04:18:53;;;;;;;;;;;;;;;7.06;57.07;101326.28;5005903;28;114875;-71
2022/11/14 04:21:38;;;;;;;20.85;12.10;;;;;;;7.06;56.84;101326.28;4997466;28;124885;-71
2022/11/14 04:24:23;;;;;;;20.58;11.70;;;;;;;7.02;57.01;101319.38;4999194;28;125571;-71
2022/11/14 04:27:09;;;;;;;20.48;11.70;;;;;;;7.00;56.97;101321.16;4998663;28;114775;-72
2022/11/14 04:29:55;;;;;;;;;;;;;;;6.96;57.04;101316.88;5000475;28;114738;-71
2022/11/14 04:32:40;;;;;;;20.27;11.18;;;;;;;6.94;56.86;101321.31;5000776;28;125364;-71
2022/11/14 04:35:26;;;;;;;25.48;12.95;;;;;;;6.92;56.91;101328.38;5001200;28;124317;-71
2022/11/14 04:38:11;;;;;;;21.15;11.90;;;;;;;6.91;57.09;101326.63;4983384;28;114212;-72
2022/11/14 04:40:56;;;;;;;23.85;13.18;;;;;;;6.89;57.32;101328.44;5000128;28;114705;-71
2022/11/14 04:43:42;;;;;;;24.67;12.60;;;;;;;6.89;57.22;101323.19;4981894;28;125370;-72
2022/11/14 04:46:35;;;;;;;23.15;12.75;;;;;;;6.88;57.41;101326.72;5005342;28;124919;-71
2022/11/14 04:49:21;;;;;;;;;;;;;;;6.86;56.92;101318.00;5003419;28;116551;-71
2022/11/14 04:52:06;;;;;;;23.38;12.85;;;;;;;6.85;56.96;101327.66;5003973;28;115659;-71
2022/11/14 04:54:52;;;;;;;24.88;12.88;;;;;;;6.81;57.01;101318.94;4998815;28;124833;-72
2022/11/14 04:57:37;;;;;;;24.95;12.30;;;;;;;6.79;57.11;101312.84;4994730;28;125206;-71
2022/11/14 05:00:24;;;;;;;23.73;11.82;;;;;;;6.77;57.16;101309.38;4997577;28;114904;-71
2022/11/14 05:03:09;;;;;;;23.27;12.43;;;;;;;6.77;57.06;101319.06;5004201;28;115221;-72
2022/11/14 05:05:59;;;;;;;19.23;11.32;;;;;;;6.74;57.57;101304.22;4982671;28;125005;-71
2022/11/14 05:08:44;;;;;;;21.45;11.98;;;;;;;6.74;57.56;101306.84;4999748;28;125372;-72
2022/11/14 05:11:30;;;;;;;23.83;12.27;;;;;;;6.74;57.20;101298.94;5001599;28;115389;-71
2022/11/14 05:14:15;;;;;;;22.23;12.18;;;;;;;6.74;57.46;101293.69;4981980;28;114642;-71
2022/11/14 05:17:01;;;;;;;21.48;12.23;;;;;;;6.74;57.35;101291.03;4997896;28;123838;-71
2022/11/14 05:19:47;;;;;;;22.05;12.55;;;;;;;6.73;57.44;101297.19;4994511;28;124417;-70
2022/11/14 05:22:32;;;;;;;22.85;12.13;;;;;;;6.73;57.33;101291.06;4993580;28;114885;-70
2022/11/14 05:25:17;;;;;;;23.90;13.20;;;;;;;6.70;57.20;101291.97;4982121;28;115374;-71
2022/11/14 05:28:03;;;;;;;21.88;12.25;;;;;;;6.67;57.34;101292.06;5002499;28;124819;-70
2022/11/14 05:30:48;;;;;;;22.38;12.02;;;;;;;6.64;57.45;101286.84;5003371;28;125097;-71
2022/11/14 05:33:35;;;;;;;22.63;11.98;;;;;;;6.62;57.49;101293.94;4984952;28;114278;-71
2022/11/14 05:36:20;;;;;;;21.40;12.35;;;;;;;6.61;57.36;101286.91;5002461;28;114728;-71
2022/11/14 05:39:06;;;;;;;;;;;;;;;6.58;57.13;101279.09;4997653;28;125033;-71
2022/11/14 05:41:51;;;;;;;22.67;12.70;;;;;;;6.56;57.18;101273.00;4990854;28;124858;-71
2022/11/14 05:44:37;;;;;;;24.02;12.60;;;;;;;6.53;57.27;101278.31;4978598;28;116406;-71
2022/11/14 05:47:22;;;;;;;22.85;12.30;;;;;;;6.52;57.19;101268.72;4999973;28;115661;-71
2022/11/14 05:50:08;;;;;;;21.75;12.85;;;;;;;6.50;57.50;101262.59;5002387;28;125200;-71
2022/11/14 05:52:55;;;;;;;23.55;12.82;;;;;;;6.47;57.37;101254.78;5002928;28;124703;-71
2022/11/14 05:55:41;;;;;;;25.88;12.93;;;;;;;6.43;57.22;101257.47;4993708;28;114708;-70
2022/11/14 05:58:26;;;;;;;26.20;13.63;;;;;;;6.40;57.82;101247.03;5012764;28;114566;-71
2022/11/14 06:01:18;;;;;;;26.83;13.48;;;;;;;6.37;57.58;101257.63;5006242;28;125196;-71
2022/11/14 06:04:04;;;;;;;24.90;13.68;;;;;;;6.37;57.83;101254.97;5012463;28;124701;-71
2022/11/14 06:06:50;;;;;;;24.42;13.25;;;;;;;6.37;57.68;101257.63;5002225;28;114864;-70
2022/11/14 06:09:36;;;;;;;;;;;;;;;6.36;57.58;101265.53;4994714;28;114555;-71
2022/11/14 06:12:21;;;;;;;24.58;12.80;;;;;;;6.36;57.55;101258.50;5006659;28;124861;-71
2022/11/14 06:15:16;;;;;;;26.58;12.50;;;;;;;6.36;57.59;101261.13;4986798;28;124518;-71
2022/11/14 06:18:02;;;;;;;23.77;13.20;;;;;;;6.37;57.18;101257.63;4985157;28;114967;-71
2022/11/14 06:20:47;;;;;;;25.83;13.02;;;;;;;6.35;57.61;101259.41;4982147;28;114493;-71
2022/11/14 06:23:33;;;;;;;22.67;12.43;;;;;;;6.36;57.73;101265.53;4999375;28;124881;-70
2022/11/14 06:26:29;;;;;;;21.63;10.43;;;;;;;6.35;57.61;101269.06;5008641;28;124463;-71
2022/11/14 06:29:14;;;;;;;;;;;;;;;6.34;57.39;101268.19;4991920;28;115675;-71
2022/11/14 06:31:59;;;;;;;19.23;10.10;;;;;;;6.35;57.18;101269.94;5003106;28;114915;-70
2022/11/14 06:34:45;;;;;;;27.45;11.98;;;;;;;6.33;57.27;101277.00;5009616;28;124734;-71
2022/11/14 06:37:30;;;;;;;20.40;10.70;;;;;;;6.34;57.39;101281.34;5007250;28;124690;-71
2022/11/14 06:40:18;;;;;;;20.13;10.60;;;;;;;6.34;57.71;101278.72;5006126;28;116489;-71
2022/11/14 06:43:04;;;;;;;21.70;11.25;;;;;;;6.34;57.64;101272.59;4999756;28;115528;-71
2022/11/14 06:45:53;;;;;;;26.10;12.43;;;;;;;6.33;57.50;101270.84;5005283;28;124941;-71
2022/11/14 06:48:39;;;;;;;24.80;11.68;;;;;;;6.32;57.25;101274.38;5008337;28;124641;-71
2022/11/14 06:51:25;;;;;;;20.58;10.38;;;;;;;6.31;57.36;101273.53;5006044;28;114053;-71
2022/11/14 06:54:11;;;;;;;21.38;10.80;;;;;;;6.32;57.65;101263.88;4998988;28;114588;-71
2022/11/14 06:56:56;;;;;;;21.58;11.25;;;;;;;6.31;57.44;101268.28;4993581;28;124594;-71
2022/11/14 06:59:42;;;;;;;21.17;10.80;;;;;;;6.30;57.44;101266.53;4979038;28;125377;-71
2022/11/14 07:02:27;;;;;;;22.00;11.02;;;;;;;6.28;57.49;101277.97;4986538;28;114305;-71
2022/11/14 07:05:13;;;;;;;20.48;10.45;;;;;;;6.26;57.40;101275.38;5000586;28;114723;-72
2022/11/14 07:07:59;;;;;;;20.73;10.65;;;;;;;6.24;57.73;101271.91;4989427;28;125075;-72
2022/11/14 07:10:44;;;;;;;20.20;11.63;;;;;;;6.24;57.85;101282.44;4988869;28;124721;-71
2022/11/14 07:13:30;;;;;;;20.38;9.75;;;;;;;6.23;57.56;101285.94;5003554;28;115171;-71
2022/11/14 07:16:16;;;;;;;22.27;9.70;;;;;;;6.24;57.79;101288.56;4999298;28;114444;-72
2022/11/14 07:19:04;;;;;;;17.45;9.20;;;;;;;6.23;57.90;101278.06;5008262;28;124692;-71
2022/11/14 07:21:50;;;;;;;18.70;9.57;;;;;;;6.23;57.75;101280.69;5009674;28;124683;-70
2022/11/14 07:24:35;;;;;;;18.23;9.68;;;;;;;6.24;57.63;101290.31;5000007;28;115099;-71
2022/11/14 07:27:21;;;;;;;23.88;9.95;;;;;;;6.25;57.86;101289.41;4994348;28;114909;-71
2022/11/14 07:30:07;;;;;;;21.85;10.23;;;;;;;6.26;57.88;101283.28;4997449;28;124010;-71
2022/11/14 07:32:56;;;;;;;;;;;;;;;6.26;57.80;101280.63;5004835;28;124470;-71
2022/11/14 07:35:41;;;;;;;17.00;9.20;;;;;;;6.28;57.79;101278.84;4996742;28;116095;-71
2022/11/14 07:38:27;;;;;;;20.92;9.82;;;;;;;6.28;57.54;101273.59;4988596;28;116311;-71
2022/11/14 07:41:14;;;;;;;18.83;9.15;;;;;;;6.29;57.72;101275.31;5004709;28;124921;-70
2022/11/14 07:44:00;;;;;;;18.60;9.23;;;;;;;6.31;57.58;101276.16;5013040;28;124864;-71
2022/11/14 07:46:45;;;;;;;21.20;9.32;;;;;;;6.32;58.22;101275.25;5010161;28;115300;-71
2022/11/14 07:49:31;;;;;;;17.65;9.73;;;;;;;6.35;57.89;101275.19;5013009;28;114579;-71
2022/11/14 07:52:17;;;;;;;19.88;9.85;;;;;;;6.39;58.05;101266.34;5014508;28;125133;-71
2022/11/14 07:55:03;;;;;;;18.35;9.02;;;;;;;6.42;58.24;101261.03;5007858;28;124715;-70
2022/11/14 07:57:52;;;;;;;19.58;8.88;;;;;;;6.47;58.49;101258.28;5009275;28;115438;-71
2022/11/14 08:00:38;;;;;;;21.58;8.85;;;;;;;6.52;58.54;101250.31;5001967;28;114654;-71
2022/11/14 08:03:23;;;;;;;18.75;8.57;;;;;;;6.57;57.94;101253.69;5001016;28;125169;-71
2022/11/14 08:06:12;;;;;;;21.20;8.63;;;;;;;6.63;58.54;101254.41;4997594;28;124709;-71
2022/11/14 08:08:58;;;;;;;18.63;8.30;;;;;;;6.69;58.23;101253.41;5003205;28;115332;-71
2022/11/14 08:11:46;;;;;;;19.40;8.52;;;;;;;6.76;58.45;101247.13;5002601;28;114713;-71
2022/11/14 08:14:32;;;;;;;14.20;7.60;;;;;;;6.83;58.45;101239.94;4995339;28;125347;-72
2022/11/14 08:17:22;;;;;;;15.05;7.75;;;;;;;6.89;58.63;101241.56;4998346;28;124986;-72
2022/11/14 08:20:08;;;;;;;18.45;7.97;;;;;;;6.96;58.58;101235.25;5000695;28;114703;-72
2022/11/14 08:23:02;;;;;;;16.80;7.88;;;;;;;7.03;58.62;101236.84;4999451;28;116047;-73
2022/11/14 08:25:48;;;;;;;14.88;7.28;;;;;;;7.11;58.82;101234.88;5004026;28;124996;-72
2022/11/14 08:28:34;;;;;;;16.83;7.70;;;;;;;7.18;58.91;101232.97;4996163;28;124662;-73
2022/11/14 08:31:20;;;;;;;16.48;7.07;;;;;;;7.25;58.53;101231.88;4986417;28;115844;-74
2022/11/14 08:34:06;;;;;;;15.45;7.63;;;;;;;7.35;58.78;101227.28;4996409;28;115574;-73
2022/11/14 08:36:51;;;;;;;13.02;7.70;;;;;;;7.43;59.09;101222.66;4990224;28;124598;-74
2022/11/14 08:39:37;;;;;;;18.70;8.27;;;;;;;7.54;59.00;101223.25;4996938;28;125111;-72
2022/11/14 08:42:22;;;;;;;13.27;7.35;;;;;;;7.65;59.06;101230.00;4998986;28;115088;-72
2022/11/14 08:45:08;;;;;;;17.15;7.75;;;;;;;7.74;58.89;101221.84;5002152;28;114203;-72
2022/11/14 08:47:55;;;;;;;14.90;7.80;;;;;;;7.87;58.91;101231.16;5008176;28;98587;-72
2022/11/14 08:50:41;;;;;;;14.95;7.65;;;;;;;7.96;58.90;101225.63;5002300;28;124510;-72
2022/11/14 08:53:27;;;;;;;20.17;7.80;;;;;;;8.09;58.93;101230.56;5001778;28;114661;-72
2022/11/14 08:56:12;;;;;;;15.15;7.15;;;;;;;8.19;58.84;101222.34;5001021;28;114498;-73
2022/11/14 08:58:58;;;;;;;15.40;7.72;;;;;;;8.29;58.60;101217.66;5007047;28;125155;-76
2022/11/14 09:01:43;;;;;;;;;;;;;;;8.37;58.67;101213.00;5000710;28;124586;-76
2022/11/14 09:04:29;;;;;;;11.77;6.70;;;;;;;8.49;58.24;101208.31;4998169;28;115132;-74
2022/11/14 09:07:14;;;;;;;15.05;7.28;;;;;;;8.59;58.87;101199.22;4982451;28;115206;-74
2022/11/14 09:10:00;;;;;;;15.80;7.80;;;;;;;8.68;58.46;101193.63;5002126;28;124537;-74
2022/11/14 09:12:45;;;;;;;15.32;7.45;;;;;;;8.81;58.77;101198.50;5006342;28;124756;-74
2022/11/14 09:15:32;;;;;;;15.38;7.80;;;;;;;8.89;58.68;101196.47;4997992;28;115001;-73
2022/11/14 09:18:18;;;;;;;11.95;7.00;;;;;;;9.00;58.66;101204.91;4997081;28;115152;-73
2022/11/14 09:21:06;;;;;;;13.60;7.80;;;;;;;9.11;58.80;101196.66;4991580;28;123909;-74
2022/11/14 09:23:52;;;;;;;15.35;8.07;;;;;;;9.21;58.61;101191.91;4978189;28;124690;-74
2022/11/14 09:26:44;;;;;;;14.10;6.65;;;;;;;9.30;58.67;101192.47;4992933;28;116092;-73
2022/11/14 09:29:30;;;;;;;12.52;7.35;;;;;;;9.41;58.39;101192.09;4996615;28;116084;-74
2022/11/14 09:32:16;;;;;;;13.00;7.22;;;;;;;9.51;58.48;101185.59;5007867;28;125685;-74
2022/11/14 09:35:01;;;;;;;;;;;;;;;9.62;58.33;101187.84;5002225;28;125280;-73
2022/11/14 09:37:47;;;;;;;14.10;9.27;;;;;;;9.74;58.54;101184.75;5005879;28;114266;-74
2022/11/14 09:40:58;;;;;;;17.15;9.77;;;;;;;9.86;58.41;101196.69;5001510;28;114855;-74
2022/11/14 09:44:02;;;;;;;15.63;10.05;;;;;;;9.97;58.46;101184.84;5005298;28;124958;-73
2022/11/14 09:47:00;;;;;;;17.27;10.07;;;;;;;10.08;58.66;101185.31;4998398;28;124411;-74
2022/11/14 09:49:49;;;;;;;18.45;11.27;;;;;;;10.20;58.74;101179.53;4997241;28;114911;-74
2022/11/14 09:52:38;;;;;;;18.83;11.23;;;;;;;10.31;58.61;101181.81;5006854;28;114780;-74
2022/11/14 09:55:29;;;;;;;18.92;10.98;;;;;;;10.41;58.63;101177.03;4999867;28;124765;-74
2022/11/14 09:58:21;;;;;;;18.42;11.23;;;;;;;10.49;58.31;101177.56;5008538;28;124774;-73
2022/11/14 10:01:31;;;;;;;17.52;11.68;;;;;;;10.57;58.42;101178.16;5001933;28;115543;-74
2022/11/14 10:04:55;;;;;;;19.65;11.68;;;;;;;10.65;58.53;101181.34;4999635;28;114512;-74
2022/11/14 10:08:26;;;;;;;17.23;10.98;;;;;;;10.77;58.24;101179.13;5006949;28;125089;-74
2022/11/14 10:11:24;;;;;;;19.55;12.13;;;;;;;10.87;58.01;101172.56;5007591;28;124578;-74
2022/11/14 10:14:40;;;;;;;19.85;12.05;;;;;;;10.96;58.20;101169.50;5006289;28;114910;-74
2022/11/14 10:17:49;;;;;;;22.70;13.10;;;;;;;11.07;58.04;101166.41;5008079;28;114489;-74
2022/11/14 10:20:51;;;;;;;22.02;13.02;;;;;;;11.17;57.95;101172.19;5004912;28;124483;-74
2022/11/14 10:24:02;;;;;;;22.55;13.23;;;;;;;11.26;58.17;101166.50;4993148;28;124510;-74
2022/11/14 10:26:59;;;;;;;21.85;13.30;;;;;;;11.34;58.01;101167.03;5005942;28;116011;-75
2022/11/14 10:30:03;;;;;;;21.67;12.98;;;;;;;11.43;57.71;101169.28;5010072;28;116290;-74
2022/11/14 10:33:12;;;;;;;22.17;14.50;;;;;;;11.49;57.65;101158.41;5004004;28;124818;-74
2022/11/14 10:36:22;;;;;;;21.50;13.13;;;;;;;11.58;57.86;101161.56;4987976;28;124839;-74
2022/11/14 10:39:23;;;;;;;23.23;13.43;;;;;;;11.65;57.82;101157.72;5005619;28;114304;-74
2022/11/14 10:42:14;;;;;;;26.75;14.38;;;;;;;11.69;57.61;101156.66;5002570;28;117313;-74
2022/11/14 10:45:09;;;;;;;30.13;16.08;;;;;;;11.75;57.38;101169.63;5004660;28;124808;-74
2022/11/14 10:47:58;;;;;;;27.50;15.38;;;;;;;11.77;57.31;101162.50;5001199;28;124826;-74
2022/11/14 10:50:56;;;;;;;30.00;16.42;;;;;;;11.80;57.36;101146.41;4987497;28;115116;-74
2022/11/14 10:53:50;;;;;;;34.22;19.40;;;;;;;11.83;57.11;101146.28;5004124;28;114726;-74
2022/11/14 10:56:50;;;;;;;34.55;19.63;;;;;;;11.83;57.00;101151.59;4989620;28;124646;-74
2022/11/14 10:59:35;;;;;;;33.05;20.80;;;;;;;11.85;57.25;101152.41;5000154;28;123927;-74
2022/11/14 11:02:21;;;;;;;37.65;21.42;;;;;;;11.84;57.03;101153.31;5006781;28;115394;-74
2022/11/14 11:05:15;;;;;;;37.70;21.60;;;;;;;11.84;56.95;101153.31;5007011;28;115167;-74
2022/11/14 11:11:29;;;;;;;38.65;22.55;;;;;;;11.83;56.94;101141.00;5006177;28;124586;-74
2022/11/14 11:14:17;;;;;;;41.35;22.55;;;;;;;11.83;56.73;101146.28;5005766;28;115522;-73
2022/11/14 11:17:11;;;;;;;39.65;24.00;;;;;;;11.83;56.80;101148.94;5007295;28;114356;-74
2022/11/14 11:20:28;;;;;;;38.08;23.15;;;;;;;11.80;56.81;101135.81;5013066;28;124575;-74
2022/11/14 11:23:21;;;;;;;37.13;21.85;;;;;;;11.79;56.67;101134.09;5003814;28;125115;-74
2022/11/14 11:26:15;;;;;;;39.25;21.23;;;;;;;11.77;56.63;101135.97;5011784;28;114756;-73
2022/11/14 11:29:03;;;;;;;40.03;22.58;;;;;;;11.73;56.71;101126.41;5008455;28;115506;-73
2022/11/14 11:31:57;;;;;;;42.15;22.33;;;;;;;11.67;56.54;101124.03;5006872;28;125242;-73
2022/11/14 11:34:43;;;;;;;40.15;21.55;;;;;;;11.64;56.71;101124.16;5009333;28;124650;-73
2022/11/14 11:37:39;;;;;;;38.80;21.20;;;;;;;11.59;56.68;101120.88;4999420;28;115397;-73
2022/11/14 11:40:27;;;;;;;38.05;20.95;;;;;;;11.56;56.79;101115.69;5000998;28;114658;-72
2022/11/14 11:43:38;;;;;;;37.88;20.20;;;;;;;11.55;56.82;101119.28;5003421;28;123768;-73
2022/11/14 11:46:39;;;;;;;34.03;18.38;;;;;;;11.55;56.69;101119.28;5003732;28;124530;-73
2022/11/14 11:49:52;;;;;;;36.95;20.13;;;;;;;11.52;56.96;101122.06;5014645;28;114894;-73
2022/11/14 11:52:46;;;;;;;39.03;19.17;;;;;;;11.51;57.02;101118.56;5006391;28;114360;-73
2022/11/14 11:55:36;;;;;;;39.17;19.67;;;;;;;11.54;56.96;101128.16;5000926;28;124866;-74
2022/11/14 11:58:44;;;;;;;33.78;18.52;;;;;;;11.53;57.00;101121.13;4991965;28;124771;-73
2022/11/14 12:01:29;;;;;;;37.83;18.85;;;;;;;11.53;56.90;101115.81;5002449;28;115361;-73
2022/11/14 12:04:15;;;;;;;;;;;;;;;11.52;57.00;101120.28;5001175;28;114731;-74
2022/11/14 12:07:17;;;;;;;34.40;17.75;;;;;;;11.53;56.88;101116.69;4999268;28;125252;-73
2022/11/14 12:10:12;;;;;;;34.67;17.40;;;;;;;11.55;57.10;101109.53;5006020;27;124384;-73
2022/11/14 12:13:29;;;;;;;32.72;16.98;;;;;;;11.55;56.79;101113.97;5006892;28;115108;-73
2022/11/14 12:16:27;;;;;;;33.03;17.33;;;;;;;11.54;56.97;101117.56;4987003;28;115935;-73
2022/11/14 12:20:01;;;;;;;34.40;17.95;;;;;;;11.52;57.01;101114.13;4999189;28;125044;-74
2022/11/14 12:22:55;;;;;;;34.10;17.85;;;;;;;11.53;56.91;101111.41;4951679;28;124365;-74
2022/11/14 12:25:57;;;;;;;33.33;17.45;;;;;;;11.54;57.18;101106.94;4993852;28;115144;-73
2022/11/14 12:29:17;;;;;;;34.33;17.55;;;;;;;11.55;56.99;101092.75;5000857;28;115752;-73
2022/11/14 12:32:14;;;;;;;29.30;16.88;;;;;;;11.58;56.99;101090.81;4982310;28;125293;-74
2022/11/14 12:35:05;;;;;;;30.23;16.70;;;;;;;11.62;56.99;101091.53;4993898;28;124431;-73
2022/11/14 12:37:53;;;;;;;33.30;16.83;;;;;;;11.65;57.04;101079.00;4983107;28;114835;-73
2022/11/14 12:40:50;;;;;;;31.92;16.50;;;;;;;11.69;57.08;101074.41;4998834;28;116355;-73
2022/11/14 12:43:38;;;;;;;29.45;16.10;;;;;;;11.74;57.00;101069.75;4981788;28;124655;-74
2022/11/14 12:46:25;;;;;;;31.52;16.77;;;;;;;11.77;56.84;101061.66;4986179;28;124426;-73
2022/11/14 12:49:37;;;;;;;32.10;16.25;;;;;;;11.79;57.06;101059.81;5000398;28;115116;-74
2022/11/14 12:52:42;;;;;;;29.05;16.05;;;;;;;11.82;56.88;101058.78;5001805;28;114490;-74
2022/11/14 12:55:27;;;;;;;32.63;16.77;;;;;;;11.85;56.81;101054.19;4997309;28;124214;-74
2022/11/14 12:58:19;;;;;;;28.60;16.20;;;;;;;11.91;56.98;101052.22;4998478;28;124522;-73
2022/11/14 13:01:25;;;;;;;30.88;16.15;;;;;;;11.94;56.99;101042.31;4996898;28;115422;-73